createdAt,value
2023-01-12T00:00:18.904Z,10.22
2023-01-12T00:05:46.012Z,9.98
2023-01-12T00:10:51.231Z,9.65
2023-01-12T00:16:21.024Z,9.74
2023-01-12T00:21:25.577Z,9.52
2023-01-12T00:26:29.790Z,10.36
2023-01-12T00:31:33.513Z,10.11
2023-01-12T00:36:37.366Z,10.16
2023-01-12T00:42:01.238Z,10.89
2023-01-12T00:47:08.154Z,10.49
2023-01-12T00:52:29.477Z,10.67
2023-01-12T00:57:34.391Z,10.67
2023-01-12T01:02:37.974Z,10.24
2023-01-12T01:07:41.798Z,10.18
2023-01-12T01:12:45.799Z,10.65
2023-01-12T01:17:49.488Z,10.76
2023-01-12T01:22:53.069Z,10.87
2023-01-12T01:27:56.793Z,11.31
2023-01-12T01:33:00.258Z,10.99
2023-01-12T01:38:05.243Z,11.10
2023-01-12T01:43:15.060Z,11.21
2023-01-12T01:48:18.903Z,11.01
2023-01-12T01:53:27.293Z,11.10
2023-01-12T01:58:51.044Z,11.55
2023-01-12T02:03:56.770Z,11.96
2023-01-12T02:09:27.708Z,11.21
2023-01-12T02:14:52.133Z,10.52
2023-01-12T02:20:22.586Z,10.52
2023-01-12T02:26:03.477Z,10.76
2023-01-12T02:31:18.731Z,11.08
2023-01-12T02:36:34.268Z,10.98
2023-01-12T02:42:10.363Z,10.97
2023-01-12T02:47:30.603Z,11.13
2023-01-12T02:52:35.357Z,10.99
2023-01-12T02:57:40.074Z,11.47
2023-01-12T03:02:43.753Z,11.82
2023-01-12T03:08:06.015Z,11.94
2023-01-12T03:13:16.736Z,12.06
2023-01-12T03:18:44.002Z,12.21
2023-01-12T03:23:58.233Z,12.58
2023-01-12T03:29:19.917Z,12.32
2023-01-12T03:34:24.295Z,12.43
2023-01-12T03:40:04.406Z,12.28
2023-01-12T03:45:48.109Z,11.88
2023-01-12T03:51:00.732Z,11.72
2023-01-12T03:56:10.342Z,11.51
2023-01-12T04:01:14.783Z,12.15
2023-01-12T04:06:18.611Z,12.59
2023-01-12T04:11:41.184Z,12.41
2023-01-12T04:16:44.900Z,12.33
2023-01-12T04:22:07.033Z,12.45
2023-01-12T04:27:11.095Z,12.09
2023-01-12T04:32:15.424Z,11.74
2023-01-12T04:37:19.483Z,11.53
2023-01-12T04:42:41.712Z,11.37
2023-01-12T04:47:45.224Z,11.30
2023-01-12T04:52:48.826Z,11.63
2023-01-12T04:57:52.459Z,11.63
2023-01-12T05:03:04.073Z,11.34
2023-01-12T05:08:28.378Z,11.10
2023-01-12T05:13:32.519Z,11.82
2023-01-12T05:18:36.763Z,12.12
2023-01-12T05:23:40.696Z,12.38
2023-01-12T05:28:44.355Z,12.62
2023-01-12T05:33:49.235Z,12.84
2023-01-12T05:38:52.996Z,12.61
2023-01-12T05:43:56.642Z,12.42
2023-01-12T05:49:00.382Z,11.93
2023-01-12T05:54:08.613Z,11.29
2023-01-12T05:59:13.786Z,10.71
2023-01-12T06:04:17.385Z,10.42
2023-01-12T06:09:21.994Z,10.48
2023-01-12T06:14:25.833Z,10.89
2023-01-12T06:19:29.649Z,10.85
2023-01-12T06:24:33.391Z,11.09
2023-01-12T06:29:36.973Z,11.42
2023-01-12T06:34:42.600Z,11.28
2023-01-12T06:39:46.194Z,10.79
2023-01-12T06:44:50.568Z,10.39
2023-01-12T06:49:54.178Z,10.36
2023-01-12T06:54:57.803Z,10.03
2023-01-12T07:00:01.470Z,9.66
2023-01-12T07:05:06.136Z,9.99
2023-01-12T07:10:12.559Z,10.33
2023-01-12T07:15:16.809Z,10.73
2023-01-12T07:20:20.604Z,10.83
2023-01-12T07:25:25.549Z,11.72
2023-01-12T07:30:29.140Z,11.36
2023-01-12T07:35:32.859Z,11.04
2023-01-12T07:40:38.792Z,11.16
2023-01-12T07:45:43.440Z,10.28
2023-01-12T07:50:49.229Z,9.74
2023-01-12T07:55:52.754Z,9.71
2023-01-12T08:00:59.984Z,9.71
2023-01-12T08:06:03.866Z,10.93
2023-01-12T08:11:10.550Z,11.72
2023-01-12T08:16:25.182Z,11.36
2023-01-12T08:21:46.308Z,10.56
2023-01-12T08:26:54.087Z,10.21
2023-01-12T08:32:03.718Z,10.26
2023-01-12T08:37:13.495Z,9.82
2023-01-12T08:42:17.215Z,9.42
2023-01-12T08:47:28.671Z,9.73
2023-01-12T08:52:33.367Z,9.90
2023-01-12T08:57:36.849Z,9.33
2023-01-12T09:02:40.632Z,9.12
2023-01-12T09:07:44.426Z,10.14
2023-01-12T09:12:48.157Z,10.94
2023-01-12T09:17:56.233Z,11.04
2023-01-12T09:22:59.840Z,10.57
2023-01-12T09:28:03.535Z,10.32
2023-01-12T09:33:07.080Z,9.71
2023-01-12T09:38:12.408Z,9.31
2023-01-12T09:43:36.815Z,9.08
2023-01-12T09:48:40.704Z,8.97
2023-01-12T09:53:47.404Z,9.36
2023-01-12T09:59:32.846Z,9.63
2023-01-12T10:04:38.361Z,9.76
2023-01-12T10:09:42.608Z,9.96
2023-01-12T10:15:19.305Z,9.76
2023-01-12T10:20:52.150Z,9.81
2023-01-12T10:26:19.986Z,9.99
2023-01-12T10:31:26.446Z,9.99
2023-01-12T10:36:30.612Z,10.19
2023-01-12T10:41:38.317Z,10.50
2023-01-12T10:46:42.259Z,10.31
2023-01-12T10:51:50.924Z,10.15
2023-01-12T10:57:03.110Z,9.86
2023-01-12T11:02:09.717Z,9.66
2023-01-12T11:07:14.979Z,9.99
2023-01-12T11:12:36.648Z,9.92
2023-01-12T11:17:48.750Z,9.83
2023-01-12T11:22:59.628Z,9.70
2023-01-12T11:28:16.404Z,9.56
2023-01-12T11:33:45.450Z,9.64
2023-01-12T11:39:07.117Z,9.68
2023-01-12T11:44:31.312Z,9.61
2023-01-12T11:49:41.264Z,9.64
2023-01-12T11:54:45.258Z,9.80
2023-01-12T12:00:29.306Z,9.60
2023-01-12T12:05:33.034Z,9.47
2023-01-12T12:11:17.302Z,9.26
2023-01-12T12:16:37.803Z,9.41
2023-01-12T12:21:58.291Z,10.41
2023-01-12T12:27:45.620Z,11.08
2023-01-12T12:33:06.226Z,11.27
2023-01-12T12:38:47.630Z,11.08
2023-01-12T12:44:31.669Z,11.08
2023-01-12T12:49:39.663Z,11.00
2023-01-12T12:54:44.405Z,11.56
2023-01-12T13:00:01.557Z,11.73
2023-01-12T13:05:09.870Z,11.67
2023-01-12T13:10:27.737Z,11.81
2023-01-12T13:15:37.483Z,11.71
2023-01-12T13:20:57.001Z,11.02
2023-01-12T13:26:04.693Z,11.40
2023-01-12T13:31:33.435Z,12.26
2023-01-12T13:36:37.774Z,10.96
2023-01-12T13:42:02.721Z,11.75
2023-01-12T13:47:27.056Z,10.74
2023-01-12T13:52:35.830Z,11.48
2023-01-12T13:57:39.409Z,11.76
2023-01-12T14:02:43.213Z,10.66
2023-01-12T14:08:11.111Z,10.89
2023-01-12T14:13:53.531Z,11.32
2023-01-12T14:18:57.276Z,11.61
2023-01-12T14:24:30.132Z,10.67
2023-01-12T14:29:35.330Z,11.23
2023-01-12T14:34:41.821Z,10.75
2023-01-12T14:39:47.466Z,10.39
2023-01-12T14:45:16.172Z,11.38
2023-01-12T14:50:23.301Z,11.36
2023-01-12T14:55:39.316Z,11.50
2023-01-12T15:00:45.267Z,10.77
2023-01-12T15:05:55.341Z,10.58
2023-01-12T15:11:10.596Z,11.24
2023-01-12T15:16:33.993Z,10.17
2023-01-12T15:22:05.723Z,10.81
2023-01-12T15:27:13.726Z,10.77
2023-01-12T15:32:51.887Z,10.73
2023-01-12T15:37:58.511Z,10.84
2023-01-12T15:43:05.745Z,10.74
2023-01-12T15:48:11.747Z,10.76
2023-01-12T15:53:21.185Z,10.83
2023-01-12T15:58:25.157Z,10.75
2023-01-12T16:03:57.389Z,10.69
2023-01-12T16:08:52.610Z,10.76
2023-01-12T16:13:56.227Z,10.37
2023-01-12T16:19:01.623Z,10.76
2023-01-12T16:24:05.688Z,10.77
2023-01-12T16:29:09.663Z,10.77
2023-01-12T16:34:13.347Z,10.58
2023-01-12T16:39:17.583Z,10.28
2023-01-12T16:44:21.215Z,10.16
2023-01-12T16:49:25.473Z,10.43
2023-01-12T16:54:29.261Z,10.82
2023-01-12T16:59:32.972Z,11.16
2023-01-12T17:04:38.738Z,11.03
2023-01-12T17:09:42.662Z,11.24
2023-01-12T17:14:46.745Z,11.47
2023-01-12T17:19:50.454Z,11.35
2023-01-12T17:24:54.793Z,10.61
2023-01-12T17:29:58.809Z,10.85
2023-01-12T17:35:04.835Z,11.19
2023-01-12T17:40:09.955Z,11.16
2023-01-12T17:45:13.766Z,11.22
2023-01-12T17:50:17.575Z,10.99
2023-01-12T17:55:21.385Z,11.33
2023-01-12T18:00:24.875Z,10.14
2023-01-12T18:05:29.411Z,10.74
2023-01-12T18:10:33.460Z,10.86
2023-01-12T18:15:40.345Z,10.85
2023-01-12T18:20:45.380Z,10.86
2023-01-12T18:25:49.653Z,10.81
2023-01-12T18:31:15.403Z,10.28
2023-01-12T18:36:27.217Z,10.47
2023-01-12T18:41:50.660Z,10.39
2023-01-12T18:47:16.414Z,10.47
2023-01-12T18:52:39.888Z,10.19
2023-01-12T18:57:44.061Z,10.18
2023-01-12T19:02:47.943Z,10.39
2023-01-12T19:08:05.396Z,10.32
2023-01-12T19:13:27.930Z,10.51
2023-01-12T19:18:34.232Z,10.58
2023-01-12T19:23:57.546Z,10.59
2023-01-12T19:29:01.997Z,10.38
2023-01-12T19:34:11.334Z,10.40
2023-01-12T19:39:28.643Z,10.88
2023-01-12T19:44:42.888Z,10.75
2023-01-12T19:49:50.014Z,10.46
2023-01-12T19:54:57.282Z,10.78
2023-01-12T20:00:08.252Z,11.43
2023-01-12T20:05:27.861Z,10.51
2023-01-12T20:10:35.029Z,11.18
2023-01-12T20:15:44.942Z,11.40
2023-01-12T20:20:54.879Z,11.81
2023-01-12T20:26:14.731Z,10.39
2023-01-12T20:31:30.893Z,10.51
2023-01-12T20:36:47.657Z,10.84
2023-01-12T20:41:55.676Z,11.08
2023-01-12T20:47:02.446Z,11.43
2023-01-12T20:52:06.495Z,12.17
2023-01-12T20:57:10.910Z,11.70
2023-01-12T21:02:32.831Z,11.52
2023-01-12T21:07:37.700Z,11.28
2023-01-12T21:12:41.675Z,11.36
2023-01-12T21:17:45.943Z,11.03
2023-01-12T21:22:49.814Z,10.98
2023-01-12T21:27:55.555Z,10.77
2023-01-12T21:33:00.354Z,10.71
2023-01-12T21:38:04.927Z,11.10
2023-01-12T21:43:09.748Z,10.94
2023-01-12T21:48:17.147Z,11.10
2023-01-12T21:53:23.012Z,11.23
2023-01-12T21:58:30.007Z,11.28
2023-01-12T22:03:34.335Z,10.97
2023-01-12T22:08:41.448Z,10.82
2023-01-12T22:13:45.749Z,10.94
2023-01-12T22:18:51.617Z,10.90
2023-01-12T22:23:55.881Z,10.70
2023-01-12T22:29:00.979Z,10.68
2023-01-12T22:34:05.832Z,10.74
2023-01-12T22:39:13.011Z,10.56
2023-01-12T22:44:16.887Z,10.60
2023-01-12T22:49:20.889Z,10.32
2023-01-12T22:54:24.537Z,10.30
2023-01-12T22:59:28.531Z,10.44
2023-01-12T23:04:32.345Z,10.47
2023-01-12T23:09:36.243Z,10.66
2023-01-12T23:14:40.373Z,10.83
2023-01-12T23:19:45.556Z,11.00
2023-01-12T23:24:49.252Z,10.62
2023-01-12T23:29:53.031Z,10.84
2023-01-12T23:34:56.968Z,11.15
2023-01-12T23:40:00.977Z,10.87
2023-01-12T23:45:05.236Z,11.01
2023-01-12T23:50:12.640Z,11.28
2023-01-12T23:55:16.557Z,11.51
